sensor_id;sensor_type;location;lat;lon;timestamp;P1;durP1;ratioP1;P2;durP2;ratioP2
76155;SDS011;64906;51.290;7.348;2023-09-18T00:02:16;4.70;;;2.88;;
76155;SDS011;64906;51.290;7.348;2023-09-18T00:04:41;5.73;;;3.07;;
76155;SDS011;64906;51.290;7.348;2023-09-18T00:07:07;4.93;;;2.80;;
76155;SDS011;64906;51.290;7.348;2023-09-18T00:09:32;5.27;;;2.97;;
76155;SDS011;64906;51.290;7.348;2023-09-18T00:11:57;5.27;;;3.00;;
76155;SDS011;64906;51.290;7.348;2023-09-18T00:14:23;4.95;;;2.65;;
76155;SDS011;64906;51.290;7.348;2023-09-18T00:16:48;5.47;;;3.00;;
76155;SDS011;64906;51.290;7.348;2023-09-18T00:19:14;5.43;;;2.67;;
76155;SDS011;64906;51.290;7.348;2023-09-18T00:21:39;5.00;;;2.72;;
76155;SDS011;64906;51.290;7.348;2023-09-18T00:24:05;5.40;;;3.23;;
76155;SDS011;64906;51.290;7.348;2023-09-18T00:26:30;6.50;;;3.00;;
76155;SDS011;64906;51.290;7.348;2023-09-18T00:28:55;5.83;;;2.80;;
76155;SDS011;64906;51.290;7.348;2023-09-18T00:31:21;5.03;;;2.80;;
76155;SDS011;64906;51.290;7.348;2023-09-18T00:33:46;6.70;;;3.20;;
76155;SDS011;64906;51.290;7.348;2023-09-18T00:36:11;5.47;;;2.73;;
76155;SDS011;64906;51.290;7.348;2023-09-18T00:38:37;5.05;;;2.90;;
76155;SDS011;64906;51.290;7.348;2023-09-18T00:41:02;5.30;;;2.87;;
76155;SDS011;64906;51.290;7.348;2023-09-18T00:43:27;6.70;;;2.92;;
76155;SDS011;64906;51.290;7.348;2023-09-18T00:45:53;5.43;;;2.80;;
76155;SDS011;64906;51.290;7.348;2023-09-18T00:48:18;5.47;;;2.72;;
76155;SDS011;64906;51.290;7.348;2023-09-18T00:50:44;6.53;;;3.10;;
76155;SDS011;64906;51.290;7.348;2023-09-18T00:53:11;6.47;;;2.97;;
76155;SDS011;64906;51.290;7.348;2023-09-18T00:55:41;5.18;;;2.75;;
76155;SDS011;64906;51.290;7.348;2023-09-18T00:58:06;5.90;;;2.95;;
76155;SDS011;64906;51.290;7.348;2023-09-18T01:00:32;4.63;;;2.80;;
76155;SDS011;64906;51.290;7.348;2023-09-18T01:02:57;5.93;;;3.25;;
76155;SDS011;64906;51.290;7.348;2023-09-18T01:05:23;6.47;;;2.80;;
76155;SDS011;64906;51.290;7.348;2023-09-18T01:07:48;5.07;;;2.40;;
76155;SDS011;64906;51.290;7.348;2023-09-18T01:10:14;5.53;;;3.00;;
76155;SDS011;64906;51.290;7.348;2023-09-18T01:13:03;5.68;;;2.75;;
76155;SDS011;64906;51.290;7.348;2023-09-18T01:15:35;6.28;;;3.20;;
76155;SDS011;64906;51.290;7.348;2023-09-18T01:18:06;5.10;;;2.80;;
76155;SDS011;64906;51.290;7.348;2023-09-18T01:20:33;6.40;;;3.20;;
76155;SDS011;64906;51.290;7.348;2023-09-18T01:22:58;5.27;;;3.13;;
76155;SDS011;64906;51.290;7.348;2023-09-18T01:25:24;4.47;;;2.60;;
76155;SDS011;64906;51.290;7.348;2023-09-18T01:27:49;5.07;;;2.87;;
76155;SDS011;64906;51.290;7.348;2023-09-18T01:30:15;4.47;;;2.55;;
76155;SDS011;64906;51.290;7.348;2023-09-18T01:32:40;5.10;;;2.85;;
76155;SDS011;64906;51.290;7.348;2023-09-18T01:35:07;5.45;;;2.83;;
76155;SDS011;64906;51.290;7.348;2023-09-18T01:37:35;5.32;;;3.13;;
76155;SDS011;64906;51.290;7.348;2023-09-18T01:40:02;5.43;;;2.58;;
76155;SDS011;64906;51.290;7.348;2023-09-18T01:42:31;5.95;;;2.78;;
76155;SDS011;64906;51.290;7.348;2023-09-18T01:44:57;4.63;;;2.75;;
76155;SDS011;64906;51.290;7.348;2023-09-18T01:47:22;5.32;;;3.05;;
76155;SDS011;64906;51.290;7.348;2023-09-18T01:49:48;4.97;;;2.80;;
76155;SDS011;64906;51.290;7.348;2023-09-18T01:52:14;5.38;;;2.90;;
76155;SDS011;64906;51.290;7.348;2023-09-18T01:54:39;5.27;;;3.03;;
76155;SDS011;64906;51.290;7.348;2023-09-18T01:57:04;7.47;;;2.88;;
76155;SDS011;64906;51.290;7.348;2023-09-18T01:59:32;4.63;;;2.50;;
76155;SDS011;64906;51.290;7.348;2023-09-18T02:01:58;4.93;;;3.00;;
76155;SDS011;64906;51.290;7.348;2023-09-18T02:04:23;5.63;;;3.00;;
76155;SDS011;64906;51.290;7.348;2023-09-18T02:06:50;4.82;;;2.65;;
76155;SDS011;64906;51.290;7.348;2023-09-18T02:09:16;4.90;;;2.78;;
76155;SDS011;64906;51.290;7.348;2023-09-18T02:11:43;5.25;;;3.10;;
76155;SDS011;64906;51.290;7.348;2023-09-18T02:14:09;5.15;;;2.83;;
76155;SDS011;64906;51.290;7.348;2023-09-18T02:16:36;5.68;;;3.08;;
76155;SDS011;64906;51.290;7.348;2023-09-18T02:19:02;5.47;;;3.13;;
76155;SDS011;64906;51.290;7.348;2023-09-18T02:21:29;4.75;;;3.00;;
76155;SDS011;64906;51.290;7.348;2023-09-18T02:23:54;4.88;;;2.92;;
76155;SDS011;64906;51.290;7.348;2023-09-18T02:26:23;5.90;;;3.17;;
76155;SDS011;64906;51.290;7.348;2023-09-18T02:28:51;4.78;;;2.63;;
76155;SDS011;64906;51.290;7.348;2023-09-18T02:31:18;5.22;;;3.08;;
76155;SDS011;64906;51.290;7.348;2023-09-18T02:33:43;4.60;;;2.70;;
76155;SDS011;64906;51.290;7.348;2023-09-18T02:36:09;5.47;;;3.00;;
76155;SDS011;64906;51.290;7.348;2023-09-18T02:38:34;6.40;;;2.70;;
76155;SDS011;64906;51.290;7.348;2023-09-18T02:41:00;5.50;;;3.10;;
76155;SDS011;64906;51.290;7.348;2023-09-18T02:43:25;4.78;;;2.60;;
76155;SDS011;64906;51.290;7.348;2023-09-18T02:45:56;5.75;;;3.20;;
76155;SDS011;64906;51.290;7.348;2023-09-18T02:48:22;5.10;;;2.92;;
76155;SDS011;64906;51.290;7.348;2023-09-18T02:50:47;5.22;;;2.72;;
76155;SDS011;64906;51.290;7.348;2023-09-18T02:53:16;5.50;;;3.20;;
76155;SDS011;64906;51.290;7.348;2023-09-18T02:55:44;4.80;;;2.90;;
76155;SDS011;64906;51.290;7.348;2023-09-18T02:58:09;4.90;;;2.88;;
76155;SDS011;64906;51.290;7.348;2023-09-18T03:00:35;4.85;;;2.72;;
76155;SDS011;64906;51.290;7.348;2023-09-18T03:03:07;5.82;;;3.00;;
76155;SDS011;64906;51.290;7.348;2023-09-18T03:05:32;5.10;;;2.63;;
76155;SDS011;64906;51.290;7.348;2023-09-18T03:07:57;7.73;;;2.90;;
76155;SDS011;64906;51.290;7.348;2023-09-18T03:10:22;4.80;;;3.10;;
76155;SDS011;64906;51.290;7.348;2023-09-18T03:12:48;4.73;;;2.70;;
76155;SDS011;64906;51.290;7.348;2023-09-18T03:15:14;6.72;;;3.17;;
76155;SDS011;64906;51.290;7.348;2023-09-18T03:17:39;4.50;;;2.67;;
76155;SDS011;64906;51.290;7.348;2023-09-18T03:20:07;4.93;;;2.92;;
76155;SDS011;64906;51.290;7.348;2023-09-18T03:22:33;5.80;;;2.63;;
76155;SDS011;64906;51.290;7.348;2023-09-18T03:24:58;5.40;;;2.63;;
76155;SDS011;64906;51.290;7.348;2023-09-18T03:27:23;4.50;;;2.70;;
76155;SDS011;64906;51.290;7.348;2023-09-18T03:29:53;5.07;;;3.10;;
76155;SDS011;64906;51.290;7.348;2023-09-18T03:32:19;4.60;;;2.47;;
76155;SDS011;64906;51.290;7.348;2023-09-18T03:34:44;5.43;;;2.93;;
76155;SDS011;64906;51.290;7.348;2023-09-18T03:37:09;5.00;;;2.90;;
76155;SDS011;64906;51.290;7.348;2023-09-18T03:39:35;4.18;;;2.38;;
76155;SDS011;64906;51.290;7.348;2023-09-18T03:42:00;4.70;;;2.70;;
76155;SDS011;64906;51.290;7.348;2023-09-18T03:44:25;4.10;;;2.40;;
76155;SDS011;64906;51.290;7.348;2023-09-18T03:46:51;5.30;;;2.63;;
76155;SDS011;64906;51.290;7.348;2023-09-18T03:49:16;4.53;;;2.30;;
76155;SDS011;64906;51.290;7.348;2023-09-18T03:51:41;4.83;;;2.40;;
76155;SDS011;64906;51.290;7.348;2023-09-18T03:54:06;6.70;;;2.73;;
76155;SDS011;64906;51.290;7.348;2023-09-18T03:56:32;4.20;;;2.30;;
76155;SDS011;64906;51.290;7.348;2023-09-18T03:58:57;5.77;;;2.63;;
76155;SDS011;64906;51.290;7.348;2023-09-18T04:01:25;4.75;;;2.42;;
76155;SDS011;64906;51.290;7.348;2023-09-18T04:03:51;5.30;;;2.80;;
76155;SDS011;64906;51.290;7.348;2023-09-18T04:06:17;5.35;;;2.65;;
76155;SDS011;64906;51.290;7.348;2023-09-18T04:08:45;4.57;;;2.70;;
76155;SDS011;64906;51.290;7.348;2023-09-18T04:11:10;4.23;;;2.37;;
76155;SDS011;64906;51.290;7.348;2023-09-18T04:13:36;4.75;;;2.78;;
76155;SDS011;64906;51.290;7.348;2023-09-18T04:16:02;4.80;;;2.60;;
76155;SDS011;64906;51.290;7.348;2023-09-18T04:18:29;4.82;;;2.33;;
76155;SDS011;64906;51.290;7.348;2023-09-18T04:20:54;5.00;;;2.37;;
76155;SDS011;64906;51.290;7.348;2023-09-18T04:23:24;4.27;;;2.37;;
76155;SDS011;64906;51.290;7.348;2023-09-18T04:25:51;4.45;;;2.50;;
76155;SDS011;64906;51.290;7.348;2023-09-18T04:28:17;4.93;;;2.60;;
76155;SDS011;64906;51.290;7.348;2023-09-18T04:30:44;4.63;;;2.50;;
76155;SDS011;64906;51.290;7.348;2023-09-18T04:33:09;4.55;;;2.30;;
76155;SDS011;64906;51.290;7.348;2023-09-18T04:35:34;4.57;;;2.40;;
76155;SDS011;64906;51.290;7.348;2023-09-18T04:38:00;4.57;;;2.40;;
76155;SDS011;64906;51.290;7.348;2023-09-18T04:40:25;6.72;;;2.67;;
76155;SDS011;64906;51.290;7.348;2023-09-18T04:42:57;4.85;;;2.45;;
76155;SDS011;64906;51.290;7.348;2023-09-18T04:45:22;6.43;;;2.90;;
76155;SDS011;64906;51.290;7.348;2023-09-18T04:47:48;5.53;;;2.80;;
76155;SDS011;64906;51.290;7.348;2023-09-18T04:50:13;4.43;;;2.53;;
76155;SDS011;64906;51.290;7.348;2023-09-18T04:52:38;4.50;;;2.50;;
76155;SDS011;64906;51.290;7.348;2023-09-18T04:55:07;4.90;;;2.78;;
76155;SDS011;64906;51.290;7.348;2023-09-18T04:57:33;4.70;;;2.55;;
76155;SDS011;64906;51.290;7.348;2023-09-18T04:59:59;6.72;;;2.85;;
76155;SDS011;64906;51.290;7.348;2023-09-18T05:02:24;5.25;;;2.78;;
76155;SDS011;64906;51.290;7.348;2023-09-18T05:04:50;4.95;;;2.53;;
76155;SDS011;64906;51.290;7.348;2023-09-18T05:07:16;5.72;;;2.70;;
76155;SDS011;64906;51.290;7.348;2023-09-18T05:09:41;6.77;;;2.70;;
76155;SDS011;64906;51.290;7.348;2023-09-18T05:12:08;6.93;;;2.75;;
76155;SDS011;64906;51.290;7.348;2023-09-18T05:14:38;5.70;;;2.95;;
76155;SDS011;64906;51.290;7.348;2023-09-18T05:17:09;5.28;;;2.63;;
76155;SDS011;64906;51.290;7.348;2023-09-18T05:19:36;5.80;;;2.83;;
76155;SDS011;64906;51.290;7.348;2023-09-18T05:22:01;5.38;;;2.85;;
76155;SDS011;64906;51.290;7.348;2023-09-18T05:24:27;5.82;;;2.92;;
76155;SDS011;64906;51.290;7.348;2023-09-18T05:26:54;6.65;;;2.70;;
76155;SDS011;64906;51.290;7.348;2023-09-18T05:29:19;6.63;;;2.97;;
76155;SDS011;64906;51.290;7.348;2023-09-18T05:31:45;5.90;;;2.90;;
76155;SDS011;64906;51.290;7.348;2023-09-18T05:34:11;7.07;;;2.33;;
76155;SDS011;64906;51.290;7.348;2023-09-18T05:36:36;6.75;;;2.75;;
76155;SDS011;64906;51.290;7.348;2023-09-18T05:39:02;6.40;;;3.45;;
76155;SDS011;64906;51.290;7.348;2023-09-18T05:41:28;8.32;;;3.13;;
76155;SDS011;64906;51.290;7.348;2023-09-18T05:43:54;8.40;;;2.90;;
76155;SDS011;64906;51.290;7.348;2023-09-18T05:46:20;8.30;;;3.10;;
76155;SDS011;64906;51.290;7.348;2023-09-18T05:48:45;5.73;;;2.67;;
76155;SDS011;64906;51.290;7.348;2023-09-18T05:51:10;7.20;;;2.90;;
76155;SDS011;64906;51.290;7.348;2023-09-18T05:53:36;7.22;;;3.00;;
76155;SDS011;64906;51.290;7.348;2023-09-18T05:56:03;8.07;;;2.83;;
76155;SDS011;64906;51.290;7.348;2023-09-18T05:58:29;8.75;;;3.25;;
76155;SDS011;64906;51.290;7.348;2023-09-18T06:00:58;8.13;;;3.05;;
76155;SDS011;64906;51.290;7.348;2023-09-18T06:03:25;7.03;;;3.00;;
76155;SDS011;64906;51.290;7.348;2023-09-18T06:05:51;8.75;;;2.88;;
76155;SDS011;64906;51.290;7.348;2023-09-18T06:08:16;9.37;;;2.83;;
76155;SDS011;64906;51.290;7.348;2023-09-18T06:10:41;5.20;;;2.70;;
76155;SDS011;64906;51.290;7.348;2023-09-18T06:13:07;7.40;;;3.10;;
76155;SDS011;64906;51.290;7.348;2023-09-18T06:15:32;10.27;;;3.70;;
76155;SDS011;64906;51.290;7.348;2023-09-18T06:17:57;15.90;;;8.07;;
76155;SDS011;64906;51.290;7.348;2023-09-18T06:20:22;29.13;;;17.43;;
76155;SDS011;64906;51.290;7.348;2023-09-18T06:22:48;30.20;;;15.93;;
76155;SDS011;64906;51.290;7.348;2023-09-18T06:25:13;39.70;;;22.43;;
76155;SDS011;64906;51.290;7.348;2023-09-18T06:27:39;59.17;;;35.10;;
76155;SDS011;64906;51.290;7.348;2023-09-18T06:30:05;63.70;;;36.72;;
76155;SDS011;64906;51.290;7.348;2023-09-18T06:32:31;74.03;;;44.53;;
76155;SDS011;64906;51.290;7.348;2023-09-18T06:34:57;71.75;;;42.38;;
76155;SDS011;64906;51.290;7.348;2023-09-18T06:37:23;84.32;;;49.08;;
76155;SDS011;64906;51.290;7.348;2023-09-18T06:39:49;75.68;;;43.67;;
76155;SDS011;64906;51.290;7.348;2023-09-18T06:42:14;82.57;;;46.50;;
76155;SDS011;64906;51.290;7.348;2023-09-18T06:44:39;90.43;;;54.87;;
76155;SDS011;64906;51.290;7.348;2023-09-18T06:47:04;93.90;;;55.03;;
76155;SDS011;64906;51.290;7.348;2023-09-18T06:49:30;100.25;;;58.03;;
76155;SDS011;64906;51.290;7.348;2023-09-18T06:51:56;126.20;;;76.05;;
76155;SDS011;64906;51.290;7.348;2023-09-18T06:54:21;124.70;;;74.43;;
76155;SDS011;64906;51.290;7.348;2023-09-18T06:56:46;121.73;;;73.27;;
76155;SDS011;64906;51.290;7.348;2023-09-18T06:59:12;136.45;;;81.47;;
76155;SDS011;64906;51.290;7.348;2023-09-18T07:01:37;162.02;;;101.63;;
76155;SDS011;64906;51.290;7.348;2023-09-18T07:04:03;155.13;;;92.65;;
76155;SDS011;64906;51.290;7.348;2023-09-18T07:06:30;156.60;;;99.03;;
76155;SDS011;64906;51.290;7.348;2023-09-18T07:08:55;165.87;;;102.40;;
76155;SDS011;64906;51.290;7.348;2023-09-18T07:11:21;176.05;;;110.15;;
76155;SDS011;64906;51.290;7.348;2023-09-18T07:13:47;193.52;;;119.28;;
76155;SDS011;64906;51.290;7.348;2023-09-18T07:16:12;184.00;;;115.53;;
76155;SDS011;64906;51.290;7.348;2023-09-18T07:18:38;191.88;;;118.22;;
76155;SDS011;64906;51.290;7.348;2023-09-18T07:21:03;179.33;;;109.73;;
76155;SDS011;64906;51.290;7.348;2023-09-18T07:23:28;179.73;;;113.77;;
76155;SDS011;64906;51.290;7.348;2023-09-18T07:25:54;167.17;;;105.67;;
76155;SDS011;64906;51.290;7.348;2023-09-18T07:28:19;166.43;;;101.63;;
76155;SDS011;64906;51.290;7.348;2023-09-18T07:30:45;153.75;;;95.13;;
76155;SDS011;64906;51.290;7.348;2023-09-18T07:33:11;151.20;;;87.72;;
76155;SDS011;64906;51.290;7.348;2023-09-18T07:35:38;129.25;;;81.20;;
76155;SDS011;64906;51.290;7.348;2023-09-18T07:38:03;145.45;;;88.38;;
76155;SDS011;64906;51.290;7.348;2023-09-18T07:40:29;113.90;;;70.28;;
76155;SDS011;64906;51.290;7.348;2023-09-18T07:42:54;125.23;;;77.27;;
76155;SDS011;64906;51.290;7.348;2023-09-18T07:45:19;124.63;;;76.43;;
76155;SDS011;64906;51.290;7.348;2023-09-18T07:47:45;121.87;;;74.80;;
76155;SDS011;64906;51.290;7.348;2023-09-18T07:50:10;111.33;;;69.47;;
76155;SDS011;64906;51.290;7.348;2023-09-18T07:52:35;103.50;;;62.22;;
76155;SDS011;64906;51.290;7.348;2023-09-18T07:55:01;107.53;;;65.68;;
76155;SDS011;64906;51.290;7.348;2023-09-18T07:57:26;105.00;;;61.93;;
76155;SDS011;64906;51.290;7.348;2023-09-18T07:59:56;95.20;;;57.13;;
76155;SDS011;64906;51.290;7.348;2023-09-18T08:02:22;88.03;;;54.00;;
76155;SDS011;64906;51.290;7.348;2023-09-18T08:04:47;94.93;;;58.90;;
76155;SDS011;64906;51.290;7.348;2023-09-18T08:07:13;70.40;;;41.93;;
76155;SDS011;64906;51.290;7.348;2023-09-18T08:09:38;68.22;;;43.95;;
76155;SDS011;64906;51.290;7.348;2023-09-18T08:12:04;76.10;;;46.85;;
76155;SDS011;64906;51.290;7.348;2023-09-18T08:14:30;64.60;;;39.40;;
76155;SDS011;64906;51.290;7.348;2023-09-18T08:16:59;67.47;;;43.30;;
76155;SDS011;64906;51.290;7.348;2023-09-18T08:19:25;60.70;;;37.33;;
76155;SDS011;64906;51.290;7.348;2023-09-18T08:21:51;61.25;;;38.65;;
76155;SDS011;64906;51.290;7.348;2023-09-18T08:24:18;56.10;;;33.63;;
76155;SDS011;64906;51.290;7.348;2023-09-18T08:26:44;57.97;;;35.70;;
76155;SDS011;64906;51.290;7.348;2023-09-18T08:29:09;57.47;;;32.87;;
76155;SDS011;64906;51.290;7.348;2023-09-18T08:31:34;48.57;;;29.17;;
76155;SDS011;64906;51.290;7.348;2023-09-18T08:33:59;48.40;;;28.77;;
76155;SDS011;64906;51.290;7.348;2023-09-18T08:36:25;51.40;;;30.77;;
76155;SDS011;64906;51.290;7.348;2023-09-18T08:38:50;54.53;;;32.07;;
76155;SDS011;64906;51.290;7.348;2023-09-18T08:41:17;51.65;;;32.53;;
76155;SDS011;64906;51.290;7.348;2023-09-18T08:43:44;42.33;;;25.58;;
76155;SDS011;64906;51.290;7.348;2023-09-18T08:46:12;43.45;;;25.73;;
76155;SDS011;64906;51.290;7.348;2023-09-18T08:48:38;45.13;;;26.55;;
76155;SDS011;64906;51.290;7.348;2023-09-18T08:51:04;45.58;;;28.05;;
76155;SDS011;64906;51.290;7.348;2023-09-18T08:53:31;41.60;;;24.38;;
76155;SDS011;64906;51.290;7.348;2023-09-18T08:56:01;42.85;;;25.88;;
76155;SDS011;64906;51.290;7.348;2023-09-18T08:58:31;38.70;;;23.90;;
76155;SDS011;64906;51.290;7.348;2023-09-18T09:01:00;41.92;;;25.83;;
76155;SDS011;64906;51.290;7.348;2023-09-18T09:03:28;39.08;;;24.58;;
76155;SDS011;64906;51.290;7.348;2023-09-18T09:05:54;41.42;;;24.27;;
76155;SDS011;64906;51.290;7.348;2023-09-18T09:08:19;38.67;;;25.00;;
76155;SDS011;64906;51.290;7.348;2023-09-18T09:10:46;38.10;;;22.92;;
76155;SDS011;64906;51.290;7.348;2023-09-18T09:13:11;37.13;;;23.53;;
76155;SDS011;64906;51.290;7.348;2023-09-18T09:15:45;38.22;;;22.63;;
76155;SDS011;64906;51.290;7.348;2023-09-18T09:18:12;36.88;;;22.52;;
76155;SDS011;64906;51.290;7.348;2023-09-18T09:20:39;33.88;;;21.35;;
76155;SDS011;64906;51.290;7.348;2023-09-18T09:23:07;34.70;;;22.50;;
76155;SDS011;64906;51.290;7.348;2023-09-18T09:25:34;38.67;;;22.38;;
76155;SDS011;64906;51.290;7.348;2023-09-18T09:28:03;33.75;;;20.83;;
76155;SDS011;64906;51.290;7.348;2023-09-18T09:30:30;34.38;;;21.38;;
76155;SDS011;64906;51.290;7.348;2023-09-18T09:32:56;33.22;;;19.55;;
76155;SDS011;64906;51.290;7.348;2023-09-18T09:35:24;32.38;;;19.65;;
76155;SDS011;64906;51.290;7.348;2023-09-18T09:37:56;32.10;;;20.33;;
76155;SDS011;64906;51.290;7.348;2023-09-18T09:40:26;32.90;;;20.50;;
76155;SDS011;64906;51.290;7.348;2023-09-18T09:42:54;31.27;;;19.25;;
76155;SDS011;64906;51.290;7.348;2023-09-18T09:45:25;31.65;;;18.45;;
76155;SDS011;64906;51.290;7.348;2023-09-18T09:47:53;30.27;;;18.25;;
76155;SDS011;64906;51.290;7.348;2023-09-18T09:50:19;32.50;;;20.20;;
76155;SDS011;64906;51.290;7.348;2023-09-18T09:52:51;29.70;;;18.08;;
76155;SDS011;64906;51.290;7.348;2023-09-18T09:55:18;29.85;;;17.80;;
76155;SDS011;64906;51.290;7.348;2023-09-18T09:57:53;30.42;;;18.52;;
76155;SDS011;64906;51.290;7.348;2023-09-18T10:00:22;31.17;;;17.95;;
76155;SDS011;64906;51.290;7.348;2023-09-18T10:03:01;28.05;;;17.60;;
76155;SDS011;64906;51.290;7.348;2023-09-18T10:05:32;26.55;;;17.63;;
76155;SDS011;64906;51.290;7.348;2023-09-18T10:08:02;26.20;;;17.05;;
76155;SDS011;64906;51.290;7.348;2023-09-18T10:10:33;25.83;;;17.20;;
76155;SDS011;64906;51.290;7.348;2023-09-18T10:13:02;29.55;;;17.02;;
76155;SDS011;64906;51.290;7.348;2023-09-18T10:15:33;26.52;;;16.25;;
76155;SDS011;64906;51.290;7.348;2023-09-18T10:18:04;27.40;;;17.20;;
76155;SDS011;64906;51.290;7.348;2023-09-18T10:20:32;26.52;;;16.38;;
76155;SDS011;64906;51.290;7.348;2023-09-18T10:23:02;27.67;;;16.05;;
76155;SDS011;64906;51.290;7.348;2023-09-18T10:25:30;24.20;;;15.63;;
76155;SDS011;64906;51.290;7.348;2023-09-18T10:27:57;27.13;;;16.00;;
76155;SDS011;64906;51.290;7.348;2023-09-18T10:30:26;25.80;;;16.00;;
76155;SDS011;64906;51.290;7.348;2023-09-18T10:32:52;24.73;;;15.40;;
76155;SDS011;64906;51.290;7.348;2023-09-18T10:35:18;24.23;;;14.93;;
76155;SDS011;64906;51.290;7.348;2023-09-18T10:37:45;24.02;;;15.48;;
76155;SDS011;64906;51.290;7.348;2023-09-18T10:40:11;27.00;;;16.13;;
76155;SDS011;64906;51.290;7.348;2023-09-18T10:42:38;25.75;;;15.63;;
76155;SDS011;64906;51.290;7.348;2023-09-18T10:45:04;27.00;;;16.17;;
76155;SDS011;64906;51.290;7.348;2023-09-18T10:47:41;25.25;;;15.98;;
76155;SDS011;64906;51.290;7.348;2023-09-18T10:50:10;25.05;;;16.25;;
76155;SDS011;64906;51.290;7.348;2023-09-18T10:52:35;26.70;;;16.73;;
76155;SDS011;64906;51.290;7.348;2023-09-18T10:55:03;30.05;;;17.45;;
76155;SDS011;64906;51.290;7.348;2023-09-18T10:57:32;26.45;;;16.05;;
76155;SDS011;64906;51.290;7.348;2023-09-18T10:59:58;24.35;;;15.35;;
76155;SDS011;64906;51.290;7.348;2023-09-18T11:02:23;25.43;;;15.93;;
76155;SDS011;64906;51.290;7.348;2023-09-18T11:04:50;22.90;;;15.25;;
76155;SDS011;64906;51.290;7.348;2023-09-18T11:07:21;23.67;;;15.88;;
76155;SDS011;64906;51.290;7.348;2023-09-18T11:09:48;24.83;;;16.33;;
76155;SDS011;64906;51.290;7.348;2023-09-18T11:12:16;24.73;;;15.68;;
76155;SDS011;64906;51.290;7.348;2023-09-18T11:17:34;24.33;;;15.98;;
76155;SDS011;64906;51.290;7.348;2023-09-18T11:20:16;25.73;;;16.10;;
76155;SDS011;64906;51.290;7.348;2023-09-18T11:25:41;24.00;;;15.25;;
76155;SDS011;64906;51.290;7.348;2023-09-18T11:28:08;23.75;;;15.23;;
76155;SDS011;64906;51.290;7.348;2023-09-18T11:30:38;22.67;;;14.82;;
76155;SDS011;64906;51.290;7.348;2023-09-18T11:33:15;23.08;;;15.45;;
76155;SDS011;64906;51.290;7.348;2023-09-18T11:36:02;27.52;;;16.02;;
76155;SDS011;64906;51.290;7.348;2023-09-18T11:38:55;23.13;;;14.57;;
76155;SDS011;64906;51.290;7.348;2023-09-18T11:41:28;21.88;;;14.75;;
76155;SDS011;64906;51.290;7.348;2023-09-18T11:46:31;23.98;;;13.90;;
76155;SDS011;64906;51.290;7.348;2023-09-18T11:48:58;21.15;;;13.25;;
76155;SDS011;64906;51.290;7.348;2023-09-18T11:51:24;19.67;;;12.75;;
76155;SDS011;64906;51.290;7.348;2023-09-18T11:53:52;20.45;;;13.43;;
76155;SDS011;64906;51.290;7.348;2023-09-18T11:56:20;22.95;;;14.55;;
76155;SDS011;64906;51.290;7.348;2023-09-18T11:58:49;23.58;;;14.38;;
76155;SDS011;64906;51.290;7.348;2023-09-18T12:01:15;23.00;;;14.68;;
76155;SDS011;64906;51.290;7.348;2023-09-18T12:03:41;23.88;;;15.52;;
76155;SDS011;64906;51.290;7.348;2023-09-18T12:06:07;26.88;;;16.23;;
76155;SDS011;64906;51.290;7.348;2023-09-18T12:08:37;25.52;;;16.48;;
76155;SDS011;64906;51.290;7.348;2023-09-18T12:11:07;25.58;;;16.10;;
76155;SDS011;64906;51.290;7.348;2023-09-18T12:13:32;24.60;;;16.35;;
76155;SDS011;64906;51.290;7.348;2023-09-18T12:15:59;26.63;;;16.70;;
76155;SDS011;64906;51.290;7.348;2023-09-18T12:18:31;26.35;;;16.90;;
76155;SDS011;64906;51.290;7.348;2023-09-18T12:20:59;28.27;;;16.67;;
76155;SDS011;64906;51.290;7.348;2023-09-18T12:23:26;27.95;;;17.65;;
76155;SDS011;64906;51.290;7.348;2023-09-18T12:25:56;27.63;;;18.15;;
76155;SDS011;64906;51.290;7.348;2023-09-18T12:28:25;28.33;;;18.25;;
76155;SDS011;64906;51.290;7.348;2023-09-18T12:30:56;26.00;;;17.13;;
76155;SDS011;64906;51.290;7.348;2023-09-18T12:35:50;25.70;;;17.90;;
76155;SDS011;64906;51.290;7.348;2023-09-18T12:38:17;30.45;;;18.95;;
76155;SDS011;64906;51.290;7.348;2023-09-18T12:40:47;28.40;;;17.42;;
76155;SDS011;64906;51.290;7.348;2023-09-18T12:43:13;28.42;;;17.83;;
76155;SDS011;64906;51.290;7.348;2023-09-18T12:45:44;29.15;;;18.27;;
76155;SDS011;64906;51.290;7.348;2023-09-18T12:48:12;30.00;;;18.40;;
76155;SDS011;64906;51.290;7.348;2023-09-18T12:50:38;28.85;;;17.25;;
76155;SDS011;64906;51.290;7.348;2023-09-18T12:53:10;28.42;;;17.92;;
76155;SDS011;64906;51.290;7.348;2023-09-18T12:55:37;28.08;;;16.85;;
76155;SDS011;64906;51.290;7.348;2023-09-18T12:58:03;26.70;;;16.73;;
76155;SDS011;64906;51.290;7.348;2023-09-18T13:00:32;26.02;;;16.50;;
76155;SDS011;64906;51.290;7.348;2023-09-18T13:02:59;24.25;;;15.38;;
76155;SDS011;64906;51.290;7.348;2023-09-18T13:05:25;22.85;;;15.10;;
76155;SDS011;64906;51.290;7.348;2023-09-18T13:07:51;24.33;;;15.32;;
76155;SDS011;64906;51.290;7.348;2023-09-18T13:10:18;22.60;;;14.93;;
76155;SDS011;64906;51.290;7.348;2023-09-18T13:12:50;22.33;;;14.40;;
76155;SDS011;64906;51.290;7.348;2023-09-18T13:15:51;21.20;;;13.98;;
76155;SDS011;64906;51.290;7.348;2023-09-18T13:18:13;22.10;;;13.88;;
76155;SDS011;64906;51.290;7.348;2023-09-18T13:20:40;20.77;;;14.05;;
76155;SDS011;64906;51.290;7.348;2023-09-18T13:23:06;23.17;;;14.52;;
76155;SDS011;64906;51.290;7.348;2023-09-18T13:25:35;22.42;;;14.23;;
76155;SDS011;64906;51.290;7.348;2023-09-18T13:28:06;21.27;;;13.93;;
76155;SDS011;64906;51.290;7.348;2023-09-18T13:30:33;20.85;;;13.13;;
76155;SDS011;64906;51.290;7.348;2023-09-18T13:33:04;22.58;;;13.95;;
76155;SDS011;64906;51.290;7.348;2023-09-18T13:35:32;21.73;;;13.30;;
76155;SDS011;64906;51.290;7.348;2023-09-18T13:37:58;18.85;;;12.63;;
76155;SDS011;64906;51.290;7.348;2023-09-18T13:40:23;19.27;;;12.38;;
76155;SDS011;64906;51.290;7.348;2023-09-18T13:42:49;23.67;;;13.98;;
76155;SDS011;64906;51.290;7.348;2023-09-18T13:45:14;21.50;;;13.65;;
76155;SDS011;64906;51.290;7.348;2023-09-18T13:47:41;22.02;;;13.40;;
76155;SDS011;64906;51.290;7.348;2023-09-18T13:50:07;22.77;;;13.45;;
76155;SDS011;64906;51.290;7.348;2023-09-18T13:52:33;20.38;;;13.15;;
76155;SDS011;64906;51.290;7.348;2023-09-18T13:55:00;20.50;;;13.43;;
76155;SDS011;64906;51.290;7.348;2023-09-18T13:57:25;20.65;;;13.13;;
76155;SDS011;64906;51.290;7.348;2023-09-18T13:59:51;20.93;;;13.30;;
76155;SDS011;64906;51.290;7.348;2023-09-18T14:02:16;19.80;;;13.25;;
76155;SDS011;64906;51.290;7.348;2023-09-18T14:04:42;19.90;;;13.18;;
76155;SDS011;64906;51.290;7.348;2023-09-18T14:07:08;19.45;;;13.50;;
76155;SDS011;64906;51.290;7.348;2023-09-18T14:09:34;22.00;;;13.52;;
76155;SDS011;64906;51.290;7.348;2023-09-18T14:12:00;21.10;;;13.15;;
76155;SDS011;64906;51.290;7.348;2023-09-18T14:14:27;19.23;;;12.88;;
76155;SDS011;64906;51.290;7.348;2023-09-18T14:16:53;18.38;;;12.18;;
76155;SDS011;64906;51.290;7.348;2023-09-18T14:19:22;19.73;;;12.93;;
76155;SDS011;64906;51.290;7.348;2023-09-18T14:21:48;17.93;;;13.00;;
76155;SDS011;64906;51.290;7.348;2023-09-18T14:24:14;17.85;;;11.23;;
76155;SDS011;64906;51.290;7.348;2023-09-18T14:26:42;18.55;;;12.38;;
76155;SDS011;64906;51.290;7.348;2023-09-18T14:29:07;18.30;;;12.50;;
76155;SDS011;64906;51.290;7.348;2023-09-18T14:31:33;19.45;;;13.48;;
76155;SDS011;64906;51.290;7.348;2023-09-18T14:33:59;18.77;;;11.93;;
76155;SDS011;64906;51.290;7.348;2023-09-18T14:36:25;19.67;;;12.43;;
76155;SDS011;64906;51.290;7.348;2023-09-18T14:38:50;18.52;;;12.45;;
76155;SDS011;64906;51.290;7.348;2023-09-18T14:41:16;17.87;;;12.07;;